createdAt,value
2019-02-20T00:00:54.243Z,101564.39
2019-02-20T00:03:22.555Z,101568.72
2019-02-20T00:05:50.748Z,101564.39
2019-02-20T00:08:19.299Z,101564.39
2019-02-20T00:10:47.496Z,101564.39
2019-02-20T00:13:15.701Z,101564.04
2019-02-20T00:15:43.907Z,101575.00
2019-02-20T00:18:12.410Z,101576.97
2019-02-20T00:20:40.610Z,101573.97
2019-02-20T00:23:09.168Z,101576.27
2019-02-20T00:25:37.373Z,101586.55
2019-02-20T00:28:05.579Z,101588.16
2019-02-20T00:30:35.415Z,101590.81
2019-02-20T00:33:03.612Z,101591.79
2019-02-20T00:35:31.827Z,101587.33
2019-02-20T00:38:00.019Z,101587.17
2019-02-20T00:40:28.240Z,101586.55
2019-02-20T00:42:56.720Z,101590.52
2019-02-20T00:45:43.025Z,101594.50
2019-02-20T00:48:12.862Z,101600.51
2019-02-20T00:50:43.151Z,101599.34
2019-02-20T00:53:15.959Z,101609.10
2019-02-20T00:55:44.152Z,101607.08
2019-02-20T00:58:12.359Z,101613.08
2019-02-20T01:00:40.563Z,101612.73
2019-02-20T01:03:08.759Z,101618.05
2019-02-20T01:05:38.946Z,101607.77
2019-02-20T01:08:07.171Z,101615.73
2019-02-20T01:10:35.364Z,101615.73
2019-02-20T01:13:03.577Z,101613.08
2019-02-20T01:15:32.158Z,101616.09
2019-02-20T01:18:00.395Z,101615.45
2019-02-20T01:20:28.596Z,101619.43
2019-02-20T01:22:59.881Z,101617.47
2019-02-20T01:25:26.719Z,101613.84
2019-02-20T01:27:54.943Z,101615.52
2019-02-20T01:30:23.449Z,101613.36
2019-02-20T01:32:51.660Z,101611.19
2019-02-20T01:35:19.870Z,101611.19
2019-02-20T01:37:48.159Z,101620.82
2019-02-20T01:40:16.348Z,101615.16
2019-02-20T01:42:44.567Z,101616.14
2019-02-20T01:45:12.771Z,101608.69
2019-02-20T01:47:40.971Z,101617.47
2019-02-20T01:50:09.177Z,101616.49
2019-02-20T01:52:37.371Z,101602.53
2019-02-20T01:55:07.780Z,101618.33
2019-02-20T01:57:36.254Z,101611.34
2019-02-20T02:00:07.084Z,101617.13
2019-02-20T02:02:35.290Z,101619.43
2019-02-20T02:05:03.546Z,101615.95
2019-02-20T02:07:31.757Z,101622.09
2019-02-20T02:09:59.943Z,101612.33
2019-02-20T02:12:28.146Z,101607.48
2019-02-20T02:14:58.267Z,101599.81
2019-02-20T02:17:26.480Z,101605.63
2019-02-20T02:19:54.682Z,101605.75
2019-02-20T02:22:22.886Z,101607.71
2019-02-20T02:24:51.120Z,101612.33
2019-02-20T02:27:19.318Z,101603.83
2019-02-20T02:29:47.515Z,101604.97
2019-02-20T02:32:15.733Z,101616.21
2019-02-20T02:34:43.921Z,101608.59
2019-02-20T02:37:12.128Z,101611.38
2019-02-20T02:39:40.332Z,101614.54
2019-02-20T02:42:08.538Z,101606.92
2019-02-20T02:44:36.737Z,101598.97
2019-02-20T02:47:04.951Z,101594.12
2019-02-20T02:49:33.152Z,101605.09
2019-02-20T02:52:01.695Z,101605.59
2019-02-20T02:54:29.891Z,101612.93
2019-02-20T02:56:58.098Z,101612.93
2019-02-20T02:59:26.290Z,101608.95
2019-02-20T03:01:54.499Z,101612.93
2019-02-20T03:04:22.691Z,101615.23
2019-02-20T03:06:50.898Z,101615.23
2019-02-20T03:09:19.098Z,101613.91
2019-02-20T03:11:47.310Z,101612.93
2019-02-20T03:14:15.504Z,101603.64
2019-02-20T03:16:43.714Z,101607.62
2019-02-20T03:19:12.211Z,101620.89
2019-02-20T03:21:40.412Z,101621.23
2019-02-20T03:24:08.607Z,101623.55
2019-02-20T03:26:36.834Z,101628.34
2019-02-20T03:29:05.011Z,101628.84
2019-02-20T03:31:33.496Z,101627.65
2019-02-20T03:34:01.691Z,101630.45
2019-02-20T03:36:29.902Z,101627.11
2019-02-20T03:38:58.097Z,101632.06
2019-02-20T03:41:26.605Z,101625.21
2019-02-20T03:43:54.798Z,101631.38
2019-02-20T03:46:23.038Z,101630.67
2019-02-20T03:48:51.190Z,101628.02
2019-02-20T03:51:19.706Z,101634.94
2019-02-20T03:53:51.403Z,101620.63
2019-02-20T03:56:17.902Z,101626.44
2019-02-20T03:58:46.114Z,101630.42
2019-02-20T04:01:14.300Z,101635.02
2019-02-20T04:03:42.507Z,101632.38
2019-02-20T04:06:10.697Z,101638.50
2019-02-20T04:08:38.914Z,101636.48
2019-02-20T04:11:07.096Z,101634.45
2019-02-20T04:13:35.310Z,101635.43
2019-02-20T04:16:03.510Z,101640.73
2019-02-20T04:18:31.976Z,101640.39
2019-02-20T04:21:00.302Z,101640.03
2019-02-20T04:23:28.507Z,101632.58
2019-02-20T04:25:56.711Z,101637.03
2019-02-20T04:28:24.917Z,101632.70
2019-02-20T04:30:53.115Z,101628.73
2019-02-20T04:33:21.372Z,101628.26
2019-02-20T04:35:49.530Z,101627.05
2019-02-20T04:38:17.736Z,101637.00
2019-02-20T04:40:45.940Z,101637.98
2019-02-20T04:43:14.143Z,101634.63
2019-02-20T04:45:42.350Z,101635.60
2019-02-20T04:48:10.903Z,101635.95
2019-02-20T04:50:39.111Z,101642.30
2019-02-20T04:53:07.310Z,101643.28
2019-02-20T04:55:35.512Z,101643.28
2019-02-20T04:58:17.522Z,101644.61
2019-02-20T05:00:45.758Z,101645.93
2019-02-20T05:03:13.956Z,101646.28
2019-02-20T05:05:42.440Z,101651.94
2019-02-20T05:08:10.634Z,101643.98
2019-02-20T05:10:39.098Z,101649.12
2019-02-20T05:13:07.578Z,101652.60
2019-02-20T05:15:35.805Z,101652.60
2019-02-20T05:18:04.001Z,101649.95
2019-02-20T05:20:32.526Z,101653.58
2019-02-20T05:23:00.713Z,101653.58
2019-02-20T05:25:28.934Z,101648.27
2019-02-20T05:27:57.131Z,101662.39
2019-02-20T05:30:25.350Z,101662.55
2019-02-20T05:32:53.546Z,101662.55
2019-02-20T05:35:21.754Z,101669.49
2019-02-20T05:37:49.950Z,101671.33
2019-02-20T05:40:18.164Z,101668.17
2019-02-20T05:42:48.284Z,101666.84
2019-02-20T05:45:16.300Z,101654.36
2019-02-20T05:47:44.775Z,101653.54
2019-02-20T05:50:12.968Z,101654.17
2019-02-20T05:52:41.175Z,101657.80
2019-02-20T05:55:09.711Z,101657.09
2019-02-20T05:57:37.918Z,101665.05
2019-02-20T06:00:12.512Z,101670.36
2019-02-20T06:02:40.743Z,101671.69
2019-02-20T06:05:08.966Z,101671.33
2019-02-20T06:07:37.443Z,101676.64
2019-02-20T06:10:08.074Z,101671.33
2019-02-20T06:12:36.294Z,101676.29
2019-02-20T06:15:06.230Z,101682.91
2019-02-20T06:17:34.750Z,101687.25
2019-02-20T06:20:03.738Z,101684.24
2019-02-20T06:22:31.941Z,101689.05
2019-02-20T06:25:00.273Z,101688.57
2019-02-20T06:27:28.412Z,101690.87
2019-02-20T06:29:56.944Z,101679.29
2019-02-20T06:32:25.147Z,101680.61
2019-02-20T06:34:53.338Z,101683.27
2019-02-20T06:37:21.556Z,101687.09
2019-02-20T06:39:49.767Z,101684.94
2019-02-20T06:42:17.964Z,101688.06
2019-02-20T06:44:46.170Z,101693.02
2019-02-20T06:47:14.673Z,101689.05
2019-02-20T06:49:42.892Z,101701.48
2019-02-20T06:52:11.081Z,101711.23
2019-02-20T06:54:39.615Z,101711.11
2019-02-20T06:57:07.812Z,101711.11
2019-02-20T06:59:36.058Z,101714.73
2019-02-20T07:02:04.249Z,101717.05
2019-02-20T07:04:32.460Z,101717.05
2019-02-20T07:07:06.784Z,101716.69
2019-02-20T07:09:53.470Z,101723.17
2019-02-20T07:12:30.919Z,101718.22
2019-02-20T07:15:36.661Z,101719.77
2019-02-20T07:18:23.097Z,101712.98
2019-02-20T07:20:57.448Z,101719.50
2019-02-20T07:23:43.901Z,101723.48
2019-02-20T07:26:30.149Z,101722.50
2019-02-20T07:29:01.595Z,101729.33
2019-02-20T07:31:29.816Z,101733.16
2019-02-20T07:33:58.352Z,101743.48
2019-02-20T07:36:26.576Z,101744.19
2019-02-20T07:38:54.774Z,101744.27
2019-02-20T07:41:22.984Z,101751.60
2019-02-20T07:43:51.183Z,101753.28
2019-02-20T07:46:19.395Z,101759.28
2019-02-20T07:48:47.941Z,101759.98
2019-02-20T07:51:16.190Z,101767.32
2019-02-20T07:53:44.384Z,101773.67
2019-02-20T07:56:12.946Z,101779.41
2019-02-20T07:58:41.149Z,101777.81
2019-02-20T08:01:09.365Z,101778.16
2019-02-20T08:03:37.572Z,101779.53
2019-02-20T08:06:05.788Z,101787.21
2019-02-20T08:08:33.987Z,101782.95
2019-02-20T08:11:02.201Z,101781.00
2019-02-20T08:13:39.117Z,101788.34
2019-02-20T08:16:00.613Z,101794.00
2019-02-20T08:18:28.815Z,101797.70
2019-02-20T08:20:57.017Z,101805.51
2019-02-20T08:23:25.227Z,101809.02
2019-02-20T08:25:53.427Z,101812.65
2019-02-20T08:28:21.642Z,101809.99
2019-02-20T08:30:50.154Z,101811.67
2019-02-20T08:33:18.369Z,101815.38
2019-02-20T08:35:46.909Z,101823.06
2019-02-20T08:38:15.127Z,101827.13
2019-02-20T08:40:43.328Z,101835.12
2019-02-20T08:43:11.837Z,101834.73
2019-02-20T08:45:40.028Z,101838.91
2019-02-20T08:48:08.239Z,101844.09
2019-02-20T08:50:36.438Z,101846.75
2019-02-20T08:53:04.652Z,101849.75
2019-02-20T08:55:32.852Z,101838.62
2019-02-20T08:58:01.068Z,101845.89
2019-02-20T09:00:29.272Z,101845.55
2019-02-20T09:02:57.487Z,101845.07
2019-02-20T09:05:26.125Z,101852.88
2019-02-20T09:07:54.338Z,101861.27
2019-02-20T09:10:22.551Z,101862.32
2019-02-20T09:12:51.054Z,101864.70
2019-02-20T09:15:19.535Z,101872.58
2019-02-20T09:17:47.728Z,101869.37
2019-02-20T09:20:15.935Z,101872.28
2019-02-20T09:22:44.130Z,101880.39
2019-02-20T09:25:19.530Z,101886.83
2019-02-20T09:27:42.552Z,101883.73
2019-02-20T09:30:15.019Z,101885.13
2019-02-20T09:32:43.517Z,101888.20
2019-02-20T09:35:11.715Z,101889.75
2019-02-20T09:37:39.933Z,101893.73
2019-02-20T09:40:17.483Z,101900.38
2019-02-20T09:42:51.058Z,101902.06
2019-02-20T09:45:19.259Z,101898.30
2019-02-20T09:47:47.532Z,101906.53
2019-02-20T09:50:15.741Z,101907.64
2019-02-20T09:52:51.936Z,101906.84
2019-02-20T09:55:14.682Z,101907.77
2019-02-20T09:57:42.932Z,101906.45
2019-02-20T10:00:13.717Z,101912.47
2019-02-20T10:02:42.181Z,101915.30
2019-02-20T10:05:11.596Z,101925.77
2019-02-20T10:07:39.792Z,101920.45
2019-02-20T10:10:10.384Z,101919.06
2019-02-20T10:12:38.865Z,101929.86
2019-02-20T10:15:15.555Z,101932.68
2019-02-20T10:17:43.752Z,101933.66
2019-02-20T10:20:11.949Z,101936.32
2019-02-20T10:22:40.154Z,101930.20
2019-02-20T10:25:10.694Z,101940.05
2019-02-20T10:27:38.897Z,101936.48
2019-02-20T10:30:10.396Z,101928.56
2019-02-20T10:32:38.612Z,101940.94
2019-02-20T10:35:08.645Z,101940.65
2019-02-20T10:37:36.863Z,101941.47
2019-02-20T10:40:07.410Z,101944.36
2019-02-20T10:42:35.569Z,101949.09
2019-02-20T10:45:05.197Z,101951.13
2019-02-20T10:47:33.413Z,101956.28
2019-02-20T10:50:01.971Z,101959.42
2019-02-20T10:52:30.190Z,101954.45
2019-02-20T10:54:58.388Z,101956.47
2019-02-20T10:57:26.601Z,101960.34
2019-02-20T10:59:54.800Z,101959.83
2019-02-20T11:02:23.028Z,101968.52
2019-02-20T11:04:51.223Z,101966.20
2019-02-20T11:07:22.260Z,101961.22
2019-02-20T11:09:50.595Z,101967.23
2019-02-20T11:12:19.170Z,101959.77
2019-02-20T11:14:48.923Z,101969.20
2019-02-20T11:17:17.440Z,101976.49
2019-02-20T11:19:48.599Z,101973.48
2019-02-20T11:22:16.801Z,101977.83
2019-02-20T11:24:45.317Z,101971.17
2019-02-20T11:27:13.499Z,101974.88
2019-02-20T11:29:41.708Z,101977.59
2019-02-20T11:32:09.906Z,101978.29
2019-02-20T11:34:38.452Z,101982.69
2019-02-20T11:37:06.648Z,101980.09
2019-02-20T11:39:37.734Z,101986.45
2019-02-20T11:42:04.776Z,101981.47
2019-02-20T11:44:32.986Z,101983.15
2019-02-20T11:47:01.535Z,101988.50
2019-02-20T11:49:29.749Z,101973.56
2019-02-20T11:51:57.951Z,101982.94
2019-02-20T11:54:26.470Z,101983.34
2019-02-20T11:56:55.112Z,101989.70
2019-02-20T11:59:23.317Z,101985.70
2019-02-20T12:01:51.598Z,101979.98
2019-02-20T12:04:19.799Z,101991.91
2019-02-20T12:06:48.010Z,101980.52
2019-02-20T12:09:16.204Z,101986.47
2019-02-20T12:11:44.412Z,101989.14
2019-02-20T12:14:12.612Z,101983.23
2019-02-20T12:16:40.837Z,101988.91
2019-02-20T12:19:09.344Z,101984.22
2019-02-20T12:21:37.559Z,101979.58
2019-02-20T12:24:05.783Z,101976.97
2019-02-20T12:26:35.276Z,101984.03
2019-02-20T12:29:03.656Z,101983.45
2019-02-20T12:31:32.148Z,101985.81
2019-02-20T12:34:01.624Z,101983.84
2019-02-20T12:36:29.944Z,101987.89
2019-02-20T12:38:58.140Z,101993.22
2019-02-20T12:41:26.353Z,101987.03
2019-02-20T12:43:54.549Z,101992.53
2019-02-20T12:46:22.755Z,101989.52
2019-02-20T12:48:51.312Z,101992.36
2019-02-20T12:51:21.162Z,101988.12
2019-02-20T12:53:49.352Z,101995.36
2019-02-20T12:56:17.881Z,101988.75
2019-02-20T12:58:46.093Z,101988.16
2019-02-20T13:01:14.312Z,101989.89
2019-02-20T13:03:42.542Z,101982.37
2019-02-20T13:06:10.724Z,101991.49
2019-02-20T13:08:38.941Z,101983.56
2019-02-20T13:11:07.440Z,101976.60
2019-02-20T13:13:35.660Z,101979.06
2019-02-20T13:16:09.437Z,101982.72
2019-02-20T13:18:33.796Z,101967.75
2019-02-20T13:21:02.283Z,101970.62
2019-02-20T13:23:30.802Z,101978.87
2019-02-20T13:25:59.014Z,101981.72
2019-02-20T13:28:28.594Z,101982.09
2019-02-20T13:30:56.881Z,101979.64
2019-02-20T13:33:25.094Z,101969.17
2019-02-20T13:35:53.296Z,101975.20
2019-02-20T13:38:21.789Z,101982.52
2019-02-20T13:40:49.997Z,101982.21
2019-02-20T13:43:18.578Z,101977.90
2019-02-20T13:45:48.218Z,101981.56
2019-02-20T13:48:17.263Z,101977.56
2019-02-20T13:50:45.489Z,101976.77
2019-02-20T13:53:14.343Z,101974.58
2019-02-20T13:55:42.681Z,101972.59
2019-02-20T13:58:11.705Z,101972.35
2019-02-20T14:00:39.986Z,101968.89
2019-02-20T14:03:08.181Z,101975.91
2019-02-20T14:05:36.392Z,101974.77
2019-02-20T14:08:04.591Z,101974.68
2019-02-20T14:10:32.815Z,101966.41
2019-02-20T14:13:01.029Z,101966.62
2019-02-20T14:15:29.236Z,101959.16
2019-02-20T14:17:57.442Z,101959.00
2019-02-20T14:20:25.665Z,101960.34
2019-02-20T14:22:53.868Z,101967.70
2019-02-20T14:25:22.420Z,101960.20
2019-02-20T14:27:50.641Z,101968.94
2019-02-20T14:30:18.848Z,101974.77
2019-02-20T14:32:47.068Z,101975.06
2019-02-20T14:35:15.837Z,101972.00
2019-02-20T14:37:44.321Z,101963.78
2019-02-20T14:40:12.519Z,101973.31
2019-02-20T14:42:40.740Z,101970.70
2019-02-20T14:45:14.218Z,101964.41
2019-02-20T14:47:42.753Z,101960.84
2019-02-20T14:50:12.125Z,101956.02
2019-02-20T14:52:40.551Z,101955.84
2019-02-20T14:55:10.349Z,101957.50
2019-02-20T14:57:38.624Z,101956.23
2019-02-20T15:00:10.082Z,101961.02
2019-02-20T15:02:38.575Z,101952.58
2019-02-20T15:05:07.450Z,101956.21
2019-02-20T15:07:35.966Z,101958.47
2019-02-20T15:10:05.810Z,101949.35
2019-02-20T15:12:34.012Z,101954.09
2019-02-20T15:15:10.299Z,101962.67
2019-02-20T15:17:32.510Z,101960.97
2019-02-20T15:20:00.710Z,101964.80
2019-02-20T15:22:28.929Z,101963.12
2019-02-20T15:24:57.128Z,101963.77
2019-02-20T15:27:28.685Z,101963.08
2019-02-20T15:29:55.297Z,101961.06
2019-02-20T15:32:23.520Z,101968.38
2019-02-20T15:34:51.728Z,101966.70
2019-02-20T15:37:19.923Z,101971.22
2019-02-20T15:39:48.847Z,101972.69
2019-02-20T15:42:17.646Z,101973.33
2019-02-20T15:44:47.264Z,101976.47
2019-02-20T15:47:15.835Z,101979.58
2019-02-20T15:49:49.024Z,101981.52
2019-02-20T15:52:19.709Z,101974.47
2019-02-20T15:54:48.688Z,101981.09
2019-02-20T15:57:19.081Z,101982.24
2019-02-20T15:59:50.467Z,101978.03
2019-02-20T16:02:24.529Z,101981.86
2019-02-20T16:04:56.276Z,101979.97
2019-02-20T16:07:26.830Z,101980.48
2019-02-20T16:10:03.502Z,101977.95
2019-02-20T16:12:34.109Z,101974.94
2019-02-20T16:15:03.362Z,101979.92
2019-02-20T16:17:34.064Z,101989.77
2019-02-20T16:20:02.714Z,101987.23
2019-02-20T16:22:31.829Z,101988.56
2019-02-20T16:25:01.010Z,101982.92
2019-02-20T16:27:29.431Z,101990.91
2019-02-20T16:29:59.439Z,101985.58
2019-02-20T16:32:27.775Z,101997.71
2019-02-20T16:34:56.205Z,101998.35
2019-02-20T16:37:28.140Z,102008.96
2019-02-20T16:39:56.551Z,101999.75
2019-02-20T16:42:25.038Z,102004.16
2019-02-20T16:44:56.084Z,101998.91
2019-02-20T16:47:24.992Z,101996.87
2019-02-20T16:49:56.857Z,101996.17
2019-02-20T16:52:28.197Z,101999.48
2019-02-20T16:54:57.100Z,101991.48
2019-02-20T16:57:28.874Z,101992.82
2019-02-20T16:59:57.566Z,101994.50
2019-02-20T17:02:25.821Z,102000.52
2019-02-20T17:04:59.324Z,101990.20
2019-02-20T17:07:24.269Z,101993.53
2019-02-20T17:09:52.845Z,102000.88
2019-02-20T17:12:21.324Z,102008.88
2019-02-20T17:14:49.630Z,102014.89
2019-02-20T17:17:18.242Z,102015.75
2019-02-20T17:19:46.431Z,102016.73
2019-02-20T17:22:14.601Z,102023.23
2019-02-20T17:24:43.223Z,102023.58
2019-02-20T17:27:11.715Z,102027.10
2019-02-20T17:29:40.189Z,102034.58
2019-02-20T17:32:08.663Z,102041.24
2019-02-20T17:34:36.894Z,102029.60
2019-02-20T17:37:05.173Z,102040.60
2019-02-20T17:39:33.740Z,102044.60
2019-02-20T17:42:02.741Z,102039.27
2019-02-20T17:44:31.294Z,102053.92
2019-02-20T17:46:59.879Z,102051.90
2019-02-20T17:49:28.318Z,102057.52
2019-02-20T17:51:56.719Z,102054.16
2019-02-20T17:54:25.154Z,102044.49
2019-02-20T17:56:53.928Z,102044.14
2019-02-20T17:59:24.338Z,102041.48
2019-02-20T18:02:01.933Z,102045.48
2019-02-20T18:04:30.383Z,102054.80
2019-02-20T18:07:24.498Z,102055.15
2019-02-20T18:09:53.302Z,102052.14
2019-02-20T18:12:26.091Z,102057.81
2019-02-20T18:14:54.560Z,102047.16
2019-02-20T18:17:23.688Z,102051.50
2019-02-20T18:19:52.452Z,102059.84
2019-02-20T18:22:20.910Z,102055.84
2019-02-20T18:24:49.316Z,102065.52
2019-02-20T18:27:17.752Z,102057.17
2019-02-20T18:29:46.161Z,102056.83
2019-02-20T18:32:17.788Z,102059.48
2019-02-20T18:34:46.266Z,102063.48
2019-02-20T18:37:16.365Z,102060.47
2019-02-20T18:39:44.816Z,102060.47
2019-02-20T18:42:13.226Z,102062.79
2019-02-20T18:44:41.730Z,102057.97
2019-02-20T18:47:10.125Z,102061.46
2019-02-20T18:49:53.874Z,102056.80
2019-02-20T18:55:18.768Z,102053.47
2019-02-20T18:57:49.018Z,102054.14
2019-02-20T19:00:26.749Z,102055.31
2019-02-20T19:02:56.676Z,102059.81
2019-02-20T19:05:28.953Z,102053.63
2019-02-20T19:07:57.837Z,102062.12
2019-02-20T19:10:35.704Z,102054.78
2019-02-20T19:13:34.630Z,102051.77
2019-02-20T19:16:25.737Z,102054.78
2019-02-20T19:19:12.304Z,102053.45
2019-02-20T19:21:57.062Z,102051.13
2019-02-20T19:24:57.992Z,102050.14
2019-02-20T19:27:31.773Z,102062.79
2019-02-20T19:30:18.604Z,102060.64
2019-02-20T19:32:52.226Z,102061.97
2019-02-20T19:35:27.188Z,102061.46
2019-02-20T19:38:07.576Z,102066.78
2019-02-20T19:40:59.132Z,102061.46
2019-02-20T19:43:33.685Z,102065.14
2019-02-20T19:46:32.834Z,102063.30
2019-02-20T19:49:38.709Z,102064.13
2019-02-20T19:52:36.001Z,102059.47
2019-02-20T19:55:23.810Z,102061.78
2019-02-20T19:58:10.666Z,102054.43
2019-02-20T20:01:01.798Z,102055.77
2019-02-20T20:03:59.626Z,102050.73
2019-02-20T20:06:41.933Z,102056.18
2019-02-20T20:09:19.699Z,102051.49
2019-02-20T20:12:09.564Z,102055.36
2019-02-20T20:14:52.790Z,102048.35
2019-02-20T20:17:39.408Z,102053.67
2019-02-20T20:20:11.268Z,102051.66
2019-02-20T20:22:45.816Z,102050.32
2019-02-20T20:25:29.328Z,102047.66
2019-02-20T20:28:19.019Z,102052.64
2019-02-20T20:31:07.896Z,102050.45
2019-02-20T20:33:57.140Z,102046.27
2019-02-20T20:36:45.203Z,102050.55
2019-02-20T20:39:25.692Z,102041.52
2019-02-20T20:42:17.250Z,102043.48
2019-02-20T20:45:12.874Z,102037.47
2019-02-20T20:47:44.337Z,102041.11
2019-02-20T20:50:36.403Z,102032.78
2019-02-20T20:53:16.511Z,102037.28
2019-02-20T20:56:07.823Z,102045.74
2019-02-20T20:59:03.211Z,102046.09
2019-02-20T21:01:43.756Z,102049.10
2019-02-20T21:04:31.588Z,102048.97
2019-02-20T21:07:06.253Z,102054.48
2019-02-20T21:09:55.937Z,102052.52
2019-02-20T21:12:27.404Z,102052.87
2019-02-20T21:15:02.570Z,102051.19
2019-02-20T21:17:48.791Z,102052.05
2019-02-20T21:20:44.422Z,102051.88
2019-02-20T21:23:27.664Z,102055.53
2019-02-20T21:26:04.921Z,102054.20
2019-02-20T21:28:55.969Z,102056.39
2019-02-20T21:32:01.986Z,102058.06
2019-02-20T21:35:02.141Z,102060.56
2019-02-20T21:37:55.053Z,102064.09
2019-02-20T21:40:42.703Z,102063.23
2019-02-20T21:43:28.976Z,102067.09
2019-02-20T21:46:20.354Z,102062.59
2019-02-20T21:48:57.726Z,102063.58
2019-02-20T21:51:49.747Z,102059.58
2019-02-20T21:54:33.067Z,102059.23
2019-02-20T21:57:04.541Z,102061.42
2019-02-20T22:00:01.772Z,102059.23
2019-02-20T22:02:42.073Z,102064.22
2019-02-20T22:05:25.292Z,102069.19
2019-02-20T22:07:59.683Z,102055.53
2019-02-20T22:10:33.691Z,102057.37
2019-02-20T22:13:27.873Z,102055.69
2019-02-20T22:16:21.847Z,102061.49
2019-02-20T22:18:59.216Z,102068.15
2019-02-20T22:21:48.853Z,102070.46
2019-02-20T22:24:31.874Z,102065.30
2019-02-20T22:27:20.303Z,102060.09
2019-02-20T22:30:14.213Z,102061.24
2019-02-20T22:32:57.770Z,102060.04
2019-02-20T22:35:50.182Z,102070.02
2019-02-20T22:38:22.531Z,102073.67
2019-02-20T22:40:53.965Z,102068.00
2019-02-20T22:43:44.711Z,102070.66
2019-02-20T22:46:19.072Z,102067.65
2019-02-20T22:48:56.659Z,102063.14
2019-02-20T22:51:53.108Z,102065.97
2019-02-20T22:54:59.685Z,102065.27
2019-02-20T22:57:46.294Z,102062.61
2019-02-20T23:00:51.367Z,102055.61
2019-02-20T23:03:34.470Z,102053.64
2019-02-20T23:06:17.290Z,102057.28
2019-02-20T23:09:07.961Z,102056.94
2019-02-20T23:11:50.676Z,102059.59
2019-02-20T23:14:43.900Z,102056.59
2019-02-20T23:17:12.581Z,102049.94
2019-02-20T23:19:41.377Z,102051.27
2019-02-20T23:22:10.065Z,102057.57
2019-02-20T23:24:38.471Z,102053.23
2019-02-20T23:27:07.222Z,102057.22
2019-02-20T23:29:35.910Z,102060.23
2019-02-20T23:32:04.325Z,102056.59
2019-02-20T23:34:33.077Z,102054.28
2019-02-20T23:37:01.503Z,102055.61
2019-02-20T23:39:29.914Z,102054.28
2019-02-20T23:41:58.329Z,102055.61
2019-02-20T23:44:26.751Z,102052.94
2019-02-20T23:46:55.176Z,102057.92
2019-02-20T23:49:23.582Z,102059.88
2019-02-20T23:51:51.988Z,102063.19
2019-02-20T23:54:20.408Z,102061.50
2019-02-20T23:56:48.807Z,102068.16
2019-02-20T23:59:17.609Z,102066.48
